Time;durP1;ratioP1;P1;durP2;ratioP2;P2;SDS_P1;SDS_P2;PMS_P1;PMS_P2;Temp;Humidity;BMP_temperature;BMP_pressure;BME280_temperature;BME280_humidity;BME280_pressure;Samples;Min_cycle;Max_cycle;Signal;HPM_P1;HPM_P2
2022/11/28 00:01:40;;;;;;;13.07;9.10;;;3.60;99.90;;;-141.84;78.45;18635.25;5050416;28;20424;-61
2022/11/28 00:04:09;;;;;;;12.87;9.27;;;3.60;99.90;;;-141.84;78.55;18623.06;5050166;28;20232;-61
2022/11/28 00:06:40;;;;;;;13.30;10.10;;;3.60;99.90;;;-141.84;78.55;18621.03;5049769;28;20225;-60
2022/11/28 00:09:09;;;;;;;12.17;9.27;;;3.60;99.90;;;-141.84;78.62;18621.03;5050020;28;20302;-60
2022/11/28 00:11:39;;;;;;;11.77;9.60;;;3.50;99.90;;;-141.84;78.75;18631.19;5049775;28;20747;-60
2022/11/28 00:14:08;;;;;;;14.70;10.40;;;3.50;99.90;;;-141.84;79.03;18594.63;5050310;28;20274;-61
2022/11/28 00:16:39;;;;;;;14.23;9.93;;;3.50;99.90;;;-141.84;79.21;18625.09;5029870;28;20225;-61
2022/11/28 00:19:08;;;;;;;15.00;10.10;;;3.50;99.90;;;-141.84;79.45;18610.88;5046247;28;20763;-62
2022/11/28 00:21:36;;;;;;;13.50;10.27;;;3.40;99.90;;;-141.84;79.82;18608.84;5049968;28;20639;-60
2022/11/28 00:24:06;;;;;;;12.80;9.80;;;3.40;99.90;;;-141.84;80.03;18610.88;5049474;28;20228;-59
2022/11/28 00:26:37;;;;;;;14.60;9.73;;;3.40;99.90;;;-141.84;80.41;18570.22;5049822;28;20225;-60
2022/11/28 00:29:08;;;;;;;14.47;9.80;;;3.30;99.90;;;-141.84;80.55;18578.38;5050783;28;20189;-60
2022/11/28 00:31:42;;;;;;;13.13;9.53;;;3.30;99.90;;;-141.84;80.88;18582.44;5050177;28;20393;-60
2022/11/28 00:34:13;;;;;;;14.87;10.10;;;3.30;99.90;;;-141.84;80.79;18598.69;5050058;28;20242;-60
2022/11/28 00:36:44;;;;;;;13.13;9.73;;;3.20;99.90;;;-141.84;80.68;18594.63;5049598;28;20228;-60
2022/11/28 00:39:12;;;;;;;14.33;9.80;;;3.20;99.90;;;-141.84;80.30;18590.56;5049930;28;20225;-61
2022/11/28 00:41:41;;;;;;;16.23;10.33;;;3.20;99.90;;;-141.84;79.88;18586.50;5068999;28;20231;-60
2022/11/28 00:44:10;;;;;;;14.30;10.20;;;3.30;99.90;;;-141.84;80.30;18623.06;5069600;28;20695;-61
2022/11/28 00:46:40;;;;;;;14.13;10.40;;;3.30;99.90;;;-141.84;80.57;18576.31;5070186;28;20255;-61
2022/11/28 00:49:08;;;;;;;15.17;9.97;;;3.30;99.90;;;-141.84;80.72;18580.41;5050300;28;20249;-60
2022/11/28 00:51:37;;;;;;;13.33;9.53;;;3.30;99.90;;;-141.84;81.01;18588.53;5049209;28;20228;-60
2022/11/28 00:54:06;;;;;;;14.43;9.93;;;3.30;99.90;;;-141.84;81.01;18588.53;5049233;28;20595;-61
2022/11/28 00:56:40;;;;;;;13.00;10.30;;;3.30;99.90;;;-141.84;80.80;18619.00;5049717;28;20224;-61
2022/11/28 00:59:08;;;;;;;13.57;9.23;;;3.30;99.90;;;-141.84;81.06;18562.09;5050159;28;20195;-60
2022/11/28 01:01:42;;;;;;;13.77;9.77;;;3.30;99.90;;;-141.84;80.88;18616.97;5052224;28;20225;-60
2022/11/28 01:04:15;;;;;;;12.33;10.07;;;3.30;99.90;;;-141.84;79.82;18598.69;5053187;28;20256;-60
2022/11/28 01:06:47;;;;;;;13.53;9.83;;;3.30;99.90;;;-141.84;80.39;18592.59;5052988;28;20236;-60
2022/11/28 01:09:19;;;;;;;11.17;9.07;;;3.30;99.90;;;-141.84;81.00;18578.38;5052956;28;20228;-59
2022/11/28 01:11:50;;;;;;;14.40;9.67;;;3.30;99.90;;;-141.84;80.87;18558.03;5053176;28;20241;-61
2022/11/28 01:14:21;;;;;;;12.53;9.40;;;3.30;99.90;;;-141.84;80.48;18610.88;5052666;28;20212;-61
2022/11/28 01:16:50;;;;;;;12.87;9.50;;;3.30;99.90;;;-141.84;80.74;18580.41;5053446;28;20200;-60
2022/11/28 01:19:20;;;;;;;14.77;10.40;;;3.30;99.90;;;-141.84;80.55;18584.47;5053138;28;20308;-61
2022/11/28 01:21:48;;;;;;;15.40;10.30;;;3.30;99.90;;;-141.84;80.39;18580.41;5053042;28;20231;-60
2022/11/28 01:24:17;;;;;;;13.03;10.33;;;3.30;99.90;;;-141.84;80.37;18596.66;5052439;28;20281;-60
2022/11/28 01:26:45;;;;;;;12.27;9.60;;;3.40;99.90;;;-141.84;80.15;18588.53;5052946;28;20225;-60
2022/11/28 01:29:15;;;;;;;13.50;9.67;;;3.40;99.90;;;-141.84;80.29;18606.81;5052839;28;20203;-61
2022/11/28 01:31:43;;;;;;;13.07;9.23;;;3.30;99.90;;;-141.84;80.55;18606.81;5052868;28;20690;-61
2022/11/28 01:34:12;;;;;;;13.50;9.50;;;3.40;99.90;;;-141.84;80.54;18576.31;5052235;28;20243;-60
2022/11/28 01:36:41;;;;;;;11.07;9.10;;;3.40;99.90;;;-141.84;80.32;18560.06;5052439;28;20236;-60
2022/11/28 01:39:09;;;;;;;12.93;9.47;;;3.50;99.90;;;-141.84;80.31;18590.56;5052039;28;20235;-61
2022/11/28 01:41:38;;;;;;;11.60;9.07;;;3.40;99.90;;;-141.84;80.58;18594.63;5071487;28;20229;-60
2022/11/28 01:44:47;;;;;;;12.23;9.77;;;3.40;99.90;;;-141.84;80.64;18582.44;5064744;28;20211;-61
2022/11/28 01:47:20;;;;;;;11.67;9.87;;;3.50;99.90;;;-141.84;80.42;18566.16;5052200;28;20631;-60
2022/11/28 01:49:52;;;;;;;11.33;9.03;;;3.50;99.90;;;-141.84;80.32;18610.88;5052840;28;20219;-60
2022/11/28 01:52:21;;;;;;;12.17;9.37;;;3.50;99.90;;;-141.84;80.06;18582.44;5051896;28;20666;-61
2022/11/28 01:54:57;;;;;;;12.83;9.63;;;3.60;99.90;;;-141.84;79.65;18619.00;5051884;28;20231;-60
2022/11/28 01:57:27;;;;;;;13.60;9.60;;;3.60;99.90;;;-141.84;79.41;18580.41;5052282;28;20274;-61
2022/11/28 02:00:04;;;;;;;12.90;9.10;;;3.70;99.90;;;-141.84;79.12;18562.09;5052654;28;20301;-61
2022/11/28 02:02:38;;;;;;;14.40;9.83;;;3.70;99.90;;;-141.84;79.21;18606.81;5052076;28;20228;-62
2022/11/28 02:05:09;;;;;;;12.20;9.43;;;3.70;99.90;;;-141.84;79.39;18604.78;5052760;28;20197;-61
2022/11/28 02:07:38;;;;;;;12.00;9.13;;;3.70;99.90;;;-141.84;78.69;18633.22;5051714;28;20220;-59
2022/11/28 02:10:12;;;;;;;11.73;9.43;;;3.80;99.90;;;-141.84;78.43;18594.63;5051730;28;20244;-60
2022/11/28 02:13:24;;;;;;;11.77;8.97;;;3.80;99.90;;;-141.84;77.83;18651.50;5051355;28;20240;-60
2022/11/28 02:16:09;;;;;;;13.53;8.97;;;3.80;99.90;;;-141.84;77.48;18619.00;5031885;28;20230;-63
2022/11/28 02:19:00;;;;;;;12.47;9.33;;;3.80;99.90;;;-141.84;77.13;18627.13;5031724;28;20283;-61
2022/11/28 02:21:43;;;;;;;12.53;8.13;;;3.80;99.90;;;-141.84;77.03;18639.31;5031793;28;20229;-61
2022/11/28 02:24:44;;;;;;;11.43;8.70;;;3.90;99.90;;;-141.84;77.07;18645.41;5039554;28;20638;-60
2022/11/28 02:27:29;;;;;;;11.13;8.10;;;3.80;99.90;;;-141.84;76.86;18643.38;5051628;28;20267;-61
2022/11/28 02:30:13;;;;;;;9.83;7.83;;;3.70;99.90;;;-141.84;77.09;18641.34;5051689;28;20230;-61
2022/11/28 02:33:04;;;;;;;10.10;8.13;;;3.70;99.90;;;-141.84;77.55;18612.91;5051497;28;20630;-60
2022/11/28 02:35:42;;;;;;;8.67;7.33;;;3.70;99.90;;;-141.84;77.85;18621.03;5051406;28;20235;-61
2022/11/28 02:38:22;;;;;;;10.03;7.80;;;3.60;99.90;;;-141.84;77.98;18641.34;5051059;28;20656;-60
2022/11/28 02:41:02;;;;;;;11.50;8.37;;;3.60;99.90;;;-141.84;77.88;18621.03;5051639;28;20213;-60
2022/11/28 02:43:39;;;;;;;11.87;7.87;;;3.50;99.90;;;-141.84;77.95;18633.22;5051046;28;20236;-61
2022/11/28 02:46:16;;;;;;;11.17;7.93;;;3.60;99.90;;;-141.84;77.51;18602.75;5051111;28;20655;-61
2022/11/28 02:48:54;;;;;;;11.10;7.77;;;3.60;99.90;;;-141.84;77.58;18631.19;5051290;28;20266;-61
2022/11/28 02:51:31;;;;;;;11.90;7.50;;;3.60;99.90;;;-141.84;77.58;18598.69;5050971;28;20803;-61
2022/11/28 02:54:03;;;;;;;9.50;7.37;;;3.60;99.90;;;-141.84;77.69;18614.94;5050831;28;20243;-61
2022/11/28 02:56:31;;;;;;;8.90;7.00;;;3.50;99.90;;;-141.84;76.87;18608.84;5050969;28;20225;-62
2022/11/28 02:59:00;;;;;;;12.03;8.37;;;3.60;99.90;;;-141.84;77.20;18631.19;5051192;28;20243;-60
2022/11/28 03:01:34;;;;;;;10.63;8.00;;;3.60;99.90;;;-141.84;77.39;18647.44;5050859;28;20243;-62
2022/11/28 03:04:31;;;;;;;10.57;7.87;;;3.60;99.90;;;-141.84;77.32;18619.00;5050723;28;20255;-60
2022/11/28 03:07:15;;;;;;;10.60;8.00;;;3.60;99.90;;;-141.84;76.93;18627.13;5050743;28;20242;-60
2022/11/28 03:10:14;;;;;;;10.30;7.57;;;3.70;99.90;;;-141.84;76.24;18673.84;5050670;28;20315;-61
2022/11/28 03:13:01;;;;;;;10.33;7.87;;;3.70;99.90;;;-141.84;76.42;18629.16;5050595;28;20755;-60
2022/11/28 03:15:44;;;;;;;10.97;7.63;;;3.80;99.90;;;-141.84;76.22;18623.06;5050041;28;20712;-61
2022/11/28 03:18:24;;;;;;;11.57;7.97;;;3.70;99.90;;;-141.84;76.08;18627.13;5050753;28;20353;-61
2022/11/28 03:20:57;;;;;;;10.87;7.13;;;3.80;99.90;;;-141.84;76.37;18659.63;5050571;28;20249;-61
2022/11/28 03:23:37;;;;;;;9.27;7.70;;;3.70;99.90;;;-141.84;75.63;18633.22;5049804;28;20196;-60
2022/11/28 03:26:16;;;;;;;10.33;8.00;;;3.70;99.90;;;-141.84;75.75;18655.56;5050744;28;20188;-61
2022/11/28 03:28:52;;;;;;;12.27;7.80;;;3.80;99.90;;;-141.84;76.16;18643.38;5050735;28;20215;-61
2022/11/28 03:31:26;;;;;;;10.33;7.43;;;3.80;99.90;;;-141.84;75.92;18667.75;5050322;28;20361;-60
2022/11/28 03:33:58;;;;;;;11.30;7.47;;;3.80;99.90;;;-141.84;75.87;18619.00;5049989;28;20286;-61
2022/11/28 03:36:32;;;;;;;10.17;7.77;;;3.80;99.90;;;-141.84;75.58;18657.59;5049923;28;20223;-60
2022/11/28 03:39:11;;;;;;;8.97;6.87;;;3.80;99.90;;;-141.84;74.74;18649.47;5050241;28;20226;-61
2022/11/28 03:41:45;;;;;;;9.73;7.30;;;3.90;99.90;;;-141.84;74.64;18659.63;5068909;28;20228;-61
2022/11/28 03:44:24;;;;;;;10.33;7.60;;;3.90;99.90;;;-141.84;74.74;18684.00;5070374;28;20190;-62
2022/11/28 03:46:57;;;;;;;10.77;7.33;;;3.90;99.90;;;-141.84;75.25;18649.47;5070577;28;20199;-61
2022/11/28 03:49:32;;;;;;;9.80;7.23;;;3.80;99.90;;;-141.84;75.29;18665.72;5069730;28;20244;-60
2022/11/28 03:52:06;;;;;;;11.33;7.43;;;3.80;99.90;;;-141.84;74.82;18686.03;5070028;28;20644;-60
2022/11/28 03:54:40;;;;;;;10.40;7.40;;;3.80;99.90;;;-141.84;75.00;18681.97;5058274;28;20235;-61
2022/11/28 03:57:17;;;;;;;8.87;7.10;;;3.80;99.90;;;-141.84;75.05;18631.19;5050378;28;20226;-61
2022/11/28 03:59:49;;;;;;;9.83;7.07;;;3.80;99.90;;;-141.84;75.06;18704.31;5050475;28;20237;-60
2022/11/28 04:02:28;;;;;;;9.30;7.37;;;3.80;99.90;;;-141.84;74.56;18690.09;5050539;28;20207;-61
2022/11/28 04:05:03;;;;;;;10.90;7.77;;;3.80;99.90;;;-141.84;74.57;18663.69;5050712;28;20185;-61
2022/11/28 04:07:42;;;;;;;9.30;7.33;;;3.80;99.90;;;-141.84;74.99;18667.75;5049939;28;20228;-61
2022/11/28 04:10:21;;;;;;;12.20;7.80;;;3.70;99.90;;;-141.84;75.32;18649.47;5050092;28;20278;-60
2022/11/28 04:12:59;;;;;;;9.67;7.53;;;3.70;99.90;;;-141.84;75.29;18667.75;5050104;28;20239;-61
2022/11/28 04:15:48;;;;;;;9.60;7.10;;;3.70;99.90;;;-141.84;74.59;18647.44;5049930;28;20232;-60
2022/11/28 04:18:26;;;;;;;11.57;6.90;;;3.70;99.90;;;-141.84;74.70;18659.63;5050205;28;20235;-60
2022/11/28 04:21:03;;;;;;;9.57;6.50;;;3.70;99.90;;;-141.84;74.31;18643.38;5049851;28;20223;-61
2022/11/28 04:23:37;;;;;;;9.17;6.63;;;3.70;99.90;;;-141.84;74.59;18649.47;5049911;28;20228;-61
2022/11/28 04:26:13;;;;;;;9.57;7.03;;;3.80;99.90;;;-141.84;74.50;18751.06;5050464;28;20371;-60
2022/11/28 04:28:45;;;;;;;8.47;6.80;;;3.80;99.90;;;-141.84;73.50;18704.31;5050302;28;20622;-61
2022/11/28 04:31:17;;;;;;;8.77;6.70;;;3.80;99.90;;;-141.84;73.43;18661.66;5050009;28;20274;-61
2022/11/28 04:33:53;;;;;;;8.87;6.73;;;3.90;99.90;;;-141.84;74.04;18679.94;5049585;28;20715;-60
2022/11/28 04:36:25;;;;;;;8.83;6.83;;;3.90;99.90;;;-141.84;73.54;18718.56;5053690;28;20228;-62
2022/11/28 04:38:58;;;;;;;7.27;6.37;;;4.00;99.90;;;-141.84;73.45;18690.09;5053837;28;20243;-60
2022/11/28 04:41:34;;;;;;;9.50;6.93;;;4.00;99.90;;;-141.84;73.29;18712.47;5070905;28;20193;-60
2022/11/28 04:44:12;;;;;;;10.17;6.80;;;4.00;99.90;;;-141.84;73.31;18688.06;5074316;28;20562;-60
2022/11/28 04:46:46;;;;;;;7.83;6.33;;;3.90;99.90;;;-141.84;73.60;18679.94;5053799;28;20213;-61
2022/11/28 04:49:14;;;;;;;9.27;6.37;;;3.90;99.90;;;-141.84;73.50;18698.22;5070789;28;20239;-60
2022/11/28 04:51:52;;;;;;;9.47;6.63;;;4.00;99.90;;;-141.84;73.56;18714.50;5060653;28;20228;-61
2022/11/28 04:54:29;;;;;;;9.67;7.07;;;4.00;99.90;;;-141.84;73.29;18688.06;5043996;28;20282;-61
2022/11/28 04:57:04;;;;;;;10.40;6.90;;;3.90;99.90;;;-141.84;73.44;18712.47;5033308;28;20645;-59
2022/11/28 04:59:33;;;;;;;8.57;6.17;;;4.00;99.90;;;-141.84;72.82;18686.03;5033719;28;20228;-61
2022/11/28 05:02:05;;;;;;;7.23;6.30;;;4.00;99.90;;;-141.84;73.48;18706.38;5033957;28;20626;-61
2022/11/28 05:04:38;;;;;;;8.37;6.37;;;4.00;99.90;;;-141.84;73.07;18714.50;5033327;28;20255;-60
2022/11/28 05:07:08;;;;;;;7.90;6.57;;;4.00;99.90;;;-141.84;73.31;18702.28;5033111;28;20255;-60
2022/11/28 05:09:38;;;;;;;9.10;6.27;;;4.00;99.90;;;-141.84;72.91;18684.00;5033634;28;20234;-60
2022/11/28 05:12:08;;;;;;;9.20;5.53;;;4.00;99.90;;;-141.84;72.37;18708.41;5033088;28;20236;-60
2022/11/28 05:14:36;;;;;;;9.60;6.00;;;4.00;99.90;;;-141.84;72.46;18696.19;5033114;28;20224;-60
2022/11/28 05:17:04;;;;;;;8.00;6.37;;;4.00;99.90;;;-141.84;71.66;18708.41;5033453;28;20604;-61
2022/11/28 05:19:33;;;;;;;8.00;5.87;;;4.10;99.90;;;-141.84;71.73;18726.69;5032600;28;20226;-59
2022/11/28 05:22:01;;;;;;;10.53;6.37;;;4.10;99.90;;;-141.84;71.77;18738.88;5032704;28;20229;-62
2022/11/28 05:24:29;;;;;;;8.27;6.17;;;4.10;99.90;;;-141.84;72.38;18706.38;5032913;28;20275;-61
2022/11/28 05:27:10;;;;;;;8.97;5.77;;;4.00;99.90;;;-141.84;71.79;18716.53;5032551;28;20747;-60
2022/11/28 05:29:42;;;;;;;9.27;6.30;;;4.10;99.90;;;-141.84;72.08;18684.00;5032540;28;20236;-60
2022/11/28 05:32:16;;;;;;;10.40;5.87;;;4.10;99.90;;;-141.84;70.91;18773.41;5032999;28;20191;-61
2022/11/28 05:34:44;;;;;;;7.57;6.30;;;4.30;99.90;;;-141.84;71.97;18706.38;5033821;28;20206;-61
2022/11/28 05:37:12;;;;;;;9.17;6.57;;;4.20;99.90;;;-141.84;72.78;18720.59;5032713;28;20376;-60
2022/11/28 05:39:41;;;;;;;9.07;7.20;;;4.10;99.90;;;-141.84;73.59;18708.41;5032735;28;20233;-59
2022/11/28 05:42:11;;;;;;;9.83;7.57;;;4.00;99.90;;;-141.84;73.31;18728.72;5040831;28;20999;-60
2022/11/28 05:44:39;;;;;;;12.67;9.70;;;4.00;99.90;;;-141.84;73.57;18716.53;5048315;28;20234;-60
2022/11/28 05:47:07;;;;;;;9.83;7.13;;;4.00;99.90;;;-141.84;74.08;18679.94;5032258;28;20205;-61
2022/11/28 05:49:35;;;;;;;8.30;6.43;;;4.00;99.90;;;-141.84;73.22;18718.56;5032466;28;20276;-60
2022/11/28 05:52:04;;;;;;;10.40;7.13;;;4.00;99.90;;;-141.84;72.69;18720.59;5047936;28;20734;-61
2022/11/28 05:54:32;;;;;;;10.40;7.27;;;4.00;99.90;;;-141.84;72.46;18716.53;5029810;28;20768;-61
2022/11/28 05:57:01;;;;;;;8.03;6.50;;;4.00;99.90;;;-141.84;72.13;18753.09;5012323;28;20325;-59
2022/11/28 05:59:31;;;;;;;7.23;6.00;;;4.10;99.90;;;-141.84;70.64;18765.28;5012475;28;20227;-60
2022/11/28 06:01:59;;;;;;;8.33;5.73;;;4.20;99.90;;;-141.84;71.57;18738.88;5012689;28;20206;-62
2022/11/28 06:04:27;;;;;;;8.00;6.43;;;4.20;99.90;;;-141.84;72.13;18730.75;5012167;28;20242;-62
2022/11/28 06:06:56;;;;;;;7.60;6.27;;;4.10;99.90;;;-141.84;72.50;18704.31;5012273;28;20739;-63
2022/11/28 06:09:24;;;;;;;11.00;6.57;;;4.10;99.90;;;-141.84;72.40;18710.44;5012044;28;20647;-62
2022/11/28 06:11:53;;;;;;;9.60;6.80;;;4.10;99.90;;;-141.84;72.50;18692.13;5011951;28;20257;-62
2022/11/28 06:14:21;;;;;;;9.43;6.07;;;4.10;99.90;;;-141.84;72.29;18714.50;5022106;28;20205;-61
2022/11/28 06:16:51;;;;;;;9.03;5.90;;;4.20;99.90;;;-141.84;72.41;18724.66;5032036;28;20229;-61
2022/11/28 06:19:19;;;;;;;9.30;6.53;;;4.20;99.90;;;-141.84;72.06;18740.91;5031945;28;20731;-62
2022/11/28 06:21:50;;;;;;;8.63;6.07;;;4.20;99.90;;;-141.84;71.50;18724.66;5031786;28;20784;-62
2022/11/28 06:24:18;;;;;;;8.83;5.80;;;4.20;99.90;;;-141.84;71.06;18736.84;5031936;28;20222;-64
2022/11/28 06:26:46;;;;;;;9.03;5.97;;;4.30;99.90;;;-141.84;70.38;18759.19;5031277;28;20283;-64
2022/11/28 06:29:14;;;;;;;7.73;5.43;;;4.40;99.90;;;-141.84;70.34;18775.44;5031900;28;20206;-63
2022/11/28 06:31:42;;;;;;;7.20;5.63;;;4.40;99.90;;;-141.84;70.98;18744.97;5032390;28;20233;-62
2022/11/28 06:34:12;;;;;;;9.00;6.87;;;4.30;99.90;;;-141.84;71.53;18793.72;5031151;28;20271;-64
2022/11/28 06:36:41;;;;;;;8.63;5.57;;;4.40;99.90;;;-141.84;71.82;18708.41;5031478;28;20240;-65
2022/11/28 06:39:14;;;;;;;8.93;5.90;;;4.40;99.90;;;-141.84;70.88;18769.34;5031558;28;20229;-63
2022/11/28 06:41:42;;;;;;;7.13;5.60;;;4.40;99.90;;;-141.84;71.07;18757.16;5035962;28;20232;-65
2022/11/28 06:44:14;;;;;;;6.47;5.77;;;4.40;99.90;;;-141.84;71.12;18724.66;5051064;28;20247;-64
2022/11/28 06:46:43;;;;;;;7.50;6.20;;;4.40;99.90;;;-141.84;71.73;18720.59;5032019;28;20183;-64
2022/11/28 06:49:13;;;;;;;8.40;6.27;;;4.40;99.90;;;-141.84;71.80;18742.94;5031036;28;20245;-63
2022/11/28 06:51:44;;;;;;;7.37;5.97;;;4.30;99.90;;;-141.84;71.53;18744.97;5031309;28;20246;-62
2022/11/28 06:54:12;;;;;;;7.60;5.93;;;4.30;99.90;;;-141.84;71.71;18720.59;5022662;28;20288;-64
2022/11/28 06:56:41;;;;;;;10.03;6.43;;;4.30;99.90;;;-141.84;71.38;18738.88;5011365;28;20315;-63
2022/11/28 06:59:11;;;;;;;8.53;6.23;;;4.40;99.90;;;-141.84;71.67;18728.72;5011315;28;20291;-63
2022/11/28 07:01:40;;;;;;;9.50;6.50;;;4.30;99.90;;;-141.84;71.22;18720.59;5011831;28;20544;-63
2022/11/28 07:04:09;;;;;;;8.47;6.63;;;4.40;99.90;;;-141.84;70.71;18751.06;5011133;28;20237;-63
2022/11/28 07:06:39;;;;;;;10.80;7.07;;;4.40;99.90;;;-141.84;70.04;18740.91;5011262;28;20230;-63
2022/11/28 07:09:07;;;;;;;8.77;6.77;;;4.40;99.90;;;-141.84;69.92;18791.69;5010849;28;20237;-63
2022/11/28 07:11:35;;;;;;;9.93;6.33;;;4.50;99.90;;;-141.84;69.90;18769.34;5010786;28;20226;-63
2022/11/28 07:14:03;;;;;;;7.70;5.70;;;4.50;99.90;;;-141.84;69.07;18769.34;5019258;28;20189;-63
2022/11/28 07:16:33;;;;;;;7.23;5.40;;;4.50;99.90;;;-141.84;69.35;18795.75;5030576;28;20238;-63
2022/11/28 07:19:01;;;;;;;14.00;6.30;;;4.60;99.90;;;-141.84;69.50;18791.69;5030616;28;20284;-63
2022/11/28 07:21:31;;;;;;;10.37;6.07;;;4.60;99.90;;;-141.84;69.46;18783.56;5030299;28;20732;-63
2022/11/28 07:24:01;;;;;;;8.13;5.73;;;4.60;99.90;;;-141.84;68.57;18779.50;5030537;28;20236;-63
2022/11/28 07:26:29;;;;;;;7.80;5.90;;;4.70;99.90;;;-141.84;67.72;18826.25;5030644;28;20241;-63
2022/11/28 07:28:58;;;;;;;8.93;6.43;;;4.80;99.90;;;-141.84;67.93;18822.19;5030718;28;20620;-63
2022/11/28 07:31:30;;;;;;;7.20;5.90;;;4.80;99.90;;;-141.84;68.10;18809.97;5030497;28;20229;-63
2022/11/28 07:34:02;;;;;;;7.87;6.10;;;4.80;99.90;;;-141.84;67.86;18834.38;5030467;28;20665;-64
2022/11/28 07:36:31;;;;;;;7.87;6.03;;;4.90;99.90;;;-141.84;67.77;18842.50;5030147;28;20714;-64
2022/11/28 07:39:03;;;;;;;7.90;5.90;;;4.90;99.90;;;-141.84;67.64;18830.31;5030244;28;20218;-62
2022/11/28 07:41:32;;;;;;;8.40;6.17;;;4.90;99.90;;;-141.84;67.38;18818.09;5033233;28;20224;-62
2022/11/28 07:44:02;;;;;;;8.23;6.50;;;5.00;99.90;;;-141.84;67.16;18842.50;5050751;28;20205;-63
2022/11/28 07:46:33;;;;;;;7.87;6.57;;;5.00;99.90;;;-141.84;66.28;18868.91;5030459;28;20222;-63
2022/11/28 07:49:03;;;;;;;11.13;6.77;;;5.10;99.90;;;-141.84;66.53;18858.75;5029807;28;20245;-63
2022/11/28 07:51:33;;;;;;;11.10;7.03;;;5.00;99.90;;;-141.84;66.96;18836.41;5030199;28;20233;-63
2022/11/28 07:54:05;;;;;;;9.10;6.30;;;5.00;99.90;;;-141.84;67.13;18834.38;5023263;28;20226;-62
2022/11/28 07:56:36;;;;;;;10.00;6.60;;;5.00;99.90;;;-141.84;66.83;18856.72;5010309;28;20253;-64
2022/11/28 07:59:24;;;;;;;8.97;6.17;;;5.00;99.90;;;-141.84;67.08;18862.81;5010555;28;20206;-63
2022/11/28 08:01:53;;;;;;;9.13;7.10;;;5.00;99.90;;;-141.84;67.58;18860.78;5010600;28;20721;-63
2022/11/28 08:04:22;;;;;;;10.33;6.70;;;5.00;99.90;;;-141.84;67.22;18828.28;5009967;28;20222;-63
2022/11/28 08:06:50;;;;;;;11.57;7.47;;;5.00;99.90;;;-141.84;67.90;18812.00;5010207;28;20353;-64
2022/11/28 08:09:20;;;;;;;10.43;7.07;;;5.00;99.90;;;-141.84;67.68;18858.75;5012351;28;20662;-63
2022/11/28 08:11:50;;;;;;;9.80;7.10;;;5.00;99.90;;;-141.84;67.45;18862.81;5016724;28;20230;-63
2022/11/28 08:14:18;;;;;;;9.87;6.97;;;5.00;99.90;;;-141.84;67.00;18846.56;5026305;28;20201;-62
2022/11/28 08:16:48;;;;;;;10.93;7.30;;;5.00;99.90;;;-141.84;67.36;18862.81;5037154;28;20225;-63
2022/11/28 08:19:17;;;;;;;10.80;7.03;;;5.00;99.90;;;-141.84;67.38;18866.88;5036083;28;20738;-63
2022/11/28 08:21:51;;;;;;;9.13;7.00;;;5.10;99.90;;;-141.84;67.65;18858.75;5036558;28;20228;-63
2022/11/28 08:24:21;;;;;;;11.70;7.60;;;5.00;99.90;;;-141.84;67.92;18834.38;5029257;28;20305;-62
2022/11/28 08:26:49;;;;;;;10.07;7.67;;;5.00;99.90;;;-141.84;67.87;18838.44;5024382;28;20237;-63
2022/11/28 08:29:17;;;;;;;11.13;8.03;;;5.00;99.90;;;-141.84;67.24;18866.88;5016417;28;20221;-62
2022/11/28 08:31:45;;;;;;;11.47;7.90;;;5.10;99.90;;;-141.84;67.47;18852.66;5017196;28;20206;-63
2022/11/28 08:34:14;;;;;;;14.47;8.70;;;5.10;99.90;;;-141.84;68.02;18854.69;5016408;28;20416;-63
2022/11/28 08:36:42;;;;;;;15.37;8.03;;;5.20;99.90;;;-141.84;67.68;18842.50;5016375;28;20230;-63
2022/11/28 08:39:11;;;;;;;10.40;7.77;;;5.20;99.90;;;-141.84;66.78;18862.81;5016120;28;20242;-63
2022/11/28 08:41:57;;;;;;;11.40;8.07;;;5.20;99.90;;;-141.84;66.89;18875.00;5016359;28;20222;-63
2022/11/28 08:44:27;;;;;;;14.50;8.50;;;5.20;99.90;;;-141.84;65.86;18887.19;5016092;28;20669;-63
2022/11/28 08:46:57;;;;;;;11.00;7.90;;;5.30;99.90;;;-141.84;65.79;18921.75;5017317;28;20201;-63
2022/11/28 08:49:25;;;;;;;12.33;8.50;;;5.40;99.90;;;-141.84;65.85;18911.56;5016191;28;20238;-63
2022/11/28 08:51:54;;;;;;;11.73;8.07;;;5.40;99.90;;;-141.84;65.87;18897.34;5016412;28;20583;-63
2022/11/28 08:54:22;;;;;;;12.10;8.70;;;5.40;99.90;;;-141.84;66.00;18913.59;5025181;28;20291;-63
2022/11/28 08:56:50;;;;;;;14.93;8.40;;;5.40;99.90;;;-141.84;65.83;18897.34;5036001;28;20770;-64
2022/11/28 08:59:21;;;;;;;12.73;8.80;;;5.40;99.90;;;-141.84;66.33;18899.38;5036484;28;20209;-63
2022/11/28 09:01:49;;;;;;;13.27;8.63;;;5.50;99.90;;;-141.84;66.33;18903.44;5037551;28;20720;-62
2022/11/28 09:04:17;;;;;;;12.13;8.17;;;5.60;99.90;;;-141.84;65.34;18905.47;5036386;28;20253;-63
2022/11/28 09:06:45;;;;;;;12.83;8.73;;;5.50;99.90;;;-141.84;65.43;18915.63;5036201;28;20433;-64
2022/11/28 09:09:14;;;;;;;12.17;8.47;;;5.50;99.90;;;-141.84;65.67;18893.28;5036159;28;20241;-65
2022/11/28 09:11:42;;;;;;;14.93;8.53;;;5.50;99.90;;;-141.84;66.20;18901.41;5036186;28;20225;-64
2022/11/28 09:14:11;;;;;;;13.73;8.90;;;5.50;99.90;;;-141.84;65.58;18919.69;5035552;28;20689;-63
2022/11/28 09:16:41;;;;;;;11.83;8.60;;;5.50;99.90;;;-141.84;65.13;18948.16;5036269;28;20213;-63
2022/11/28 09:19:09;;;;;;;12.80;7.83;;;5.60;99.90;;;-141.84;64.88;18921.75;5036269;28;20233;-63
2022/11/28 09:21:39;;;;;;;16.67;9.43;;;5.70;99.90;;;-141.84;65.03;18925.81;5032824;28;20234;-63
2022/11/28 09:24:08;;;;;;;13.37;8.47;;;5.70;99.90;;;-141.84;64.53;18944.09;5032656;28;20218;-64
2022/11/28 09:26:37;;;;;;;12.40;8.87;;;5.80;99.90;;;-141.84;64.56;18950.19;5033087;28;20847;-64
2022/11/28 09:29:05;;;;;;;12.80;9.27;;;5.80;99.90;;;-141.84;64.75;18956.28;5033564;28;20218;-63
2022/11/28 09:31:33;;;;;;;11.03;8.20;;;5.90;99.90;;;-141.84;64.21;18940.03;5032393;28;20236;-63
2022/11/28 09:34:03;;;;;;;15.17;9.07;;;6.00;99.90;;;-141.84;64.03;18950.19;5032659;28;20254;-64
2022/11/28 09:36:32;;;;;;;12.87;8.57;;;6.00;99.90;;;-141.84;63.99;18996.91;5032839;28;20232;-63
2022/11/28 09:39:01;;;;;;;13.77;8.57;;;6.10;99.90;;;-141.84;63.51;18980.66;5032354;28;20713;-62
2022/11/28 09:41:42;;;;;;;11.30;8.00;;;6.20;99.90;;;-141.84;62.42;18964.41;5032631;28;20225;-62
2022/11/28 09:44:20;;;;;;;14.07;8.53;;;6.20;99.90;;;-141.84;62.94;19013.16;5032461;28;20190;-63
2022/11/28 09:46:53;;;;;;;12.43;8.87;;;6.30;99.90;;;-141.84;62.82;18994.88;5033207;28;20194;-63
2022/11/28 09:49:35;;;;;;;13.33;8.73;;;6.30;99.90;;;-141.84;62.45;18984.72;5032445;28;20230;-63
2022/11/28 09:52:26;;;;;;;13.87;8.77;;;6.40;99.90;;;-141.84;62.75;19013.16;5032352;28;20271;-64
2022/11/28 09:55:14;;;;;;;16.37;9.63;;;6.40;99.90;;;-141.84;63.25;19033.50;5032292;28;20228;-64
2022/11/28 09:57:46;;;;;;;11.93;8.97;;;6.50;99.90;;;-141.84;61.83;19066.00;5032234;28;20230;-64
2022/11/28 10:00:20;;;;;;;14.40;8.97;;;6.60;99.90;;;-141.84;62.02;19025.38;5032317;28;20221;-64
2022/11/28 10:03:19;;;;;;;11.73;9.27;;;6.60;99.90;;;-141.84;62.42;19009.09;5032294;28;20230;-64
2022/11/28 10:06:07;;;;;;;12.50;8.77;;;6.60;99.90;;;-141.84;61.55;19037.56;5032182;28;20225;-64
2022/11/28 10:08:46;;;;;;;13.43;9.77;;;6.70;99.90;;;-141.84;61.76;19009.09;5032127;28;20230;-63
2022/11/28 10:11:30;;;;;;;14.47;9.83;;;6.60;99.90;;;-141.84;62.30;19045.69;5031827;28;20241;-63
2022/11/28 10:14:19;;;;;;;13.00;8.23;;;6.60;99.90;;;-141.84;61.90;19027.41;5032609;28;20224;-63
2022/11/28 10:17:01;;;;;;;12.10;8.73;;;6.60;99.90;;;-141.84;62.78;19041.63;5052339;28;20198;-63
2022/11/28 10:19:38;;;;;;;16.27;9.80;;;6.60;99.90;;;-141.84;62.18;19039.59;5051805;28;20229;-63
2022/11/28 10:22:37;;;;;;;12.87;8.47;;;6.80;99.90;;;-141.84;62.35;19068.03;5051568;28;20700;-63
2022/11/28 10:25:16;;;;;;;13.83;9.33;;;6.90;99.90;;;-141.84;62.02;19074.13;5051701;28;20283;-62
2022/11/28 10:27:47;;;;;;;14.67;9.27;;;7.00;99.90;;;-141.84;61.95;19049.75;5051739;28;20233;-63
2022/11/28 10:30:22;;;;;;;14.17;9.37;;;7.00;99.90;;;-141.84;61.80;19074.13;5051807;28;20312;-62
2022/11/28 10:33:03;;;;;;;14.13;9.60;;;7.00;99.90;;;-141.84;61.49;19063.97;5051212;28;20303;-63